Time;durP1;ratioP1;P1;durP2;ratioP2;P2;SDS_P1;SDS_P2;PMS_P1;PMS_P2;Temp;Humidity;BMP_temperature;BMP_pressure;BME280_temperature;BME280_humidity;BME280_pressure;Samples;Min_cycle;Max_cycle;Signal;HPM_P1;HPM_P2
2022/06/15 00:00:12;;;;;;;4.57;3.70;;;;;;;;;;784692;179;918732;-71
2022/06/15 00:02:38;;;;;;;5.17;3.57;;;;;;;;;;779094;178;919333;-71
2022/06/15 00:05:04;;;;;;;4.80;4.30;;;;;;;;;;779615;178;919096;-71
2022/06/15 00:07:29;;;;;;;4.47;3.40;;;;;;;;;;783738;178;918970;-71
2022/06/15 00:09:55;;;;;;;5.17;3.40;;;;;;;;;;779778;178;928836;-72
2022/06/15 00:12:21;;;;;;;4.93;3.80;;;;;;;;;;779928;179;917044;-71
2022/06/15 00:14:48;;;;;;;13.45;4.15;;;;;;;;;;782316;179;919027;-70
2022/06/15 00:17:13;;;;;;;6.93;4.50;;;;;;;;;;774978;179;919189;-71
2022/06/15 00:19:39;;;;;;;7.60;4.40;;;;;;;;;;777251;179;917677;-71
2022/06/15 00:22:06;;;;;;;6.43;4.80;;;;;;;;;;778440;179;918780;-70
2022/06/15 00:24:31;;;;;;;6.30;4.20;;;;;;;;;;783859;179;918318;-76
2022/06/15 00:26:57;;;;;;;8.73;4.90;;;;;;;;;;777121;179;919514;-70
2022/06/15 00:29:23;;;;;;;8.60;4.37;;;;;;;;;;776123;179;919105;-71
2022/06/15 00:31:49;;;;;;;5.87;4.60;;;;;;;;;;784474;179;918998;-70
2022/06/15 00:34:15;;;;;;;7.77;4.80;;;;;;;;;;779522;179;1010193;-71
2022/06/15 00:36:40;;;;;;;10.80;4.50;;;;;;;;;;777831;179;918940;-71
2022/06/15 00:39:06;;;;;;;10.63;4.77;;;;;;;;;;782753;179;918608;-72
2022/06/15 00:41:32;;;;;;;7.60;4.83;;;;;;;;;;777352;179;918409;-72
2022/06/15 00:43:58;;;;;;;9.17;5.10;;;;;;;;;;775791;179;918971;-71
2022/06/15 00:46:24;;;;;;;9.50;6.00;;;;;;;;;;775448;179;918613;-72
2022/06/15 00:48:50;;;;;;;7.47;5.27;;;;;;;;;;776746;179;918660;-71
2022/06/15 00:51:16;;;;;;;7.00;3.83;;;;;;;;;;777444;179;919581;-73
2022/06/15 00:53:42;;;;;;;4.40;3.53;;;;;;;;;;775645;179;918385;-71
2022/06/15 00:56:08;;;;;;;5.20;4.10;;;;;;;;;;781731;180;919679;-71
2022/06/15 00:58:34;;;;;;;9.13;4.20;;;;;;;;;;777962;179;931194;-71
2022/06/15 01:01:00;;;;;;;6.27;3.70;;;;;;;;;;778090;179;919371;-71
2022/06/15 01:03:25;;;;;;;4.73;3.60;;;;;;;;;;784758;178;918365;-71
2022/06/15 01:05:52;;;;;;;5.63;3.80;;;;;;;;;;778972;178;919402;-71
2022/06/15 01:08:21;;;;;;;7.78;3.60;;;;;;;;;;780189;178;920098;-72
2022/06/15 01:11:04;;;;;;;4.90;3.00;;;;;;;;;;778685;178;920667;-71
2022/06/15 01:13:42;;;;;;;4.30;2.80;;;;;;;;;;777728;178;921003;-71
2022/06/15 01:16:11;;;;;;;5.13;2.93;;;;;;;;;;777795;178;915550;-71
2022/06/15 01:18:40;;;;;;;7.30;2.97;;;;;;;;;;785224;178;1017983;-71
2022/06/15 01:21:08;;;;;;;7.83;3.20;;;;;;;;;;780507;178;915098;-71
2022/06/15 01:23:39;;;;;;;5.50;3.10;;;;;;;;;;778113;179;919135;-71
2022/06/15 01:26:20;;;;;;;6.90;3.40;;;;;;;;;;775745;179;919078;-71
2022/06/15 01:28:47;;;;;;;8.63;3.23;;;;;;;;;;774763;179;918972;-70
2022/06/15 01:31:13;;;;;;;5.10;3.30;;;;;;;;;;784743;179;918027;-71
2022/06/15 01:33:39;;;;;;;3.77;3.03;;;;;;;;;;778429;179;918266;-70
2022/06/15 01:36:06;;;;;;;6.20;3.30;;;;;;;;;;778527;179;945736;-71
2022/06/15 01:38:34;;;;;;;4.70;2.80;;;;;;;;;;783509;179;918891;-71
2022/06/15 01:41:03;;;;;;;6.30;4.27;;;;;;;;;;777855;179;918293;-70
2022/06/15 01:43:29;;;;;;;7.57;5.32;;;;;;;;;;778659;179;919013;-70
2022/06/15 01:45:54;;;;;;;6.70;5.67;;;;;;;;;;777277;179;923656;-71
2022/06/15 01:48:20;;;;;;;8.00;6.30;;;;;;;;;;783500;179;919473;-70
2022/06/15 01:50:46;;;;;;;9.20;6.47;;;;;;;;;;780020;179;919273;-70
2022/06/15 01:53:12;;;;;;;7.90;5.80;;;;;;;;;;780825;179;919281;-71
2022/06/15 01:55:38;;;;;;;9.00;4.00;;;;;;;;;;783470;179;919650;-70
2022/06/15 01:58:05;;;;;;;4.03;3.37;;;;;;;;;;781082;179;920024;-70
2022/06/15 02:00:31;;;;;;;12.60;4.20;;;;;;;;;;778803;179;918832;-70
2022/06/15 02:03:00;;;;;;;4.57;3.43;;;;;;;;;;781542;179;919099;-70
2022/06/15 02:05:26;;;;;;;3.97;3.23;;;;;;;;;;781689;179;919198;-70
2022/06/15 02:08:07;;;;;;;5.17;4.20;;;;;;;;;;777038;179;918818;-70
2022/06/15 02:10:40;;;;;;;5.75;3.70;;;;;;;;;;777897;179;919154;-70
2022/06/15 02:13:06;;;;;;;5.60;4.00;;;;;;;;;;778424;179;918289;-69
2022/06/15 02:15:33;;;;;;;8.90;3.72;;;;;;;;;;783850;177;919454;-70
2022/06/15 02:17:58;;;;;;;4.07;3.67;;;;;;;;;;783012;178;919357;-70
2022/06/15 02:20:23;;;;;;;4.15;3.75;;;;;;;;;;779413;178;918622;-70
2022/06/15 02:22:49;;;;;;;5.97;4.50;;;;;;;;;;778516;178;918242;-70
2022/06/15 02:25:15;;;;;;;6.13;4.63;;;;;;;;;;780930;178;918762;-70
2022/06/15 02:27:41;;;;;;;6.10;3.67;;;;;;;;;;778280;178;919845;-70
2022/06/15 02:30:08;;;;;;;7.13;3.57;;;;;;;;;;776050;179;919400;-70
2022/06/15 02:32:34;;;;;;;6.10;3.93;;;;;;;;;;784495;179;917843;-69
2022/06/15 02:35:00;;;;;;;5.27;4.47;;;;;;;;;;780608;179;919508;-70
2022/06/15 02:37:25;;;;;;;6.37;4.30;;;;;;;;;;774030;179;919084;-69
2022/06/15 02:39:51;;;;;;;4.97;3.90;;;;;;;;;;782792;179;918747;-69
2022/06/15 02:42:22;;;;;;;5.90;5.10;;;;;;;;;;780363;179;919257;-70
2022/06/15 02:44:48;;;;;;;7.67;5.07;;;;;;;;;;779408;179;918949;-70
2022/06/15 02:47:14;;;;;;;8.17;6.47;;;;;;;;;;778586;179;918622;-69
2022/06/15 02:49:39;;;;;;;9.87;7.40;;;;;;;;;;784780;179;919338;-69
2022/06/15 02:52:06;;;;;;;20.77;15.37;;;;;;;;;;777390;179;920130;-69
2022/06/15 02:54:33;;;;;;;16.13;13.10;;;;;;;;;;776365;179;1021902;-69
2022/06/15 02:56:58;;;;;;;14.10;10.87;;;;;;;;;;783859;179;918335;-69
2022/06/15 02:59:24;;;;;;;15.67;13.40;;;;;;;;;;779237;179;930174;-69
2022/06/15 03:01:50;;;;;;;19.58;13.05;;;;;;;;;;778461;179;950332;-69
2022/06/15 03:04:16;;;;;;;21.55;17.05;;;;;;;;;;780695;179;921118;-69
2022/06/15 03:06:42;;;;;;;25.73;19.40;;;;;;;;;;776405;179;919054;-69
2022/06/15 03:09:08;;;;;;;21.70;16.97;;;;;;;;;;777044;179;920935;-69
2022/06/15 03:11:34;;;;;;;19.93;17.83;;;;;;;;;;777724;179;918715;-68
2022/06/15 03:14:00;;;;;;;17.83;15.10;;;;;;;;;;784342;179;918744;-69
2022/06/15 03:16:26;;;;;;;14.67;12.10;;;;;;;;;;775200;179;922080;-68
2022/06/15 03:18:51;;;;;;;15.80;13.37;;;;;;;;;;779483;179;917005;-68
2022/06/15 03:21:17;;;;;;;16.43;13.30;;;;;;;;;;782922;179;918851;-68
2022/06/15 03:23:43;;;;;;;17.87;11.53;;;;;;;;;;777352;179;919220;-69
2022/06/15 03:26:09;;;;;;;16.17;12.70;;;;;;;;;;780649;176;919446;-68
2022/06/15 03:28:35;;;;;;;13.33;11.57;;;;;;;;;;785735;178;926104;-68
2022/06/15 03:31:01;;;;;;;16.43;11.47;;;;;;;;;;778588;178;1016484;-68
2022/06/15 03:33:27;;;;;;;13.80;12.33;;;;;;;;;;780270;178;917824;-68
2022/06/15 03:35:52;;;;;;;33.23;17.60;;;;;;;;;;778755;178;920671;-67
2022/06/15 03:38:18;;;;;;;17.60;13.70;;;;;;;;;;784548;178;918849;-68
2022/06/15 03:40:44;;;;;;;16.53;14.80;;;;;;;;;;784501;178;640952;-68
2022/06/15 03:43:10;;;;;;;15.57;13.17;;;;;;;;;;782336;178;915969;-68
2022/06/15 03:45:36;;;;;;;14.70;13.20;;;;;;;;;;784491;178;918707;-68
2022/06/15 03:48:02;;;;;;;16.20;13.48;;;;;;;;;;780615;179;918965;-69
2022/06/15 03:50:27;;;;;;;18.30;13.60;;;;;;;;;;778661;179;918286;-68
2022/06/15 03:52:54;;;;;;;16.87;12.52;;;;;;;;;;783341;179;914340;-67
2022/06/15 03:55:19;;;;;;;13.80;12.30;;;;;;;;;;778289;179;920820;-68
2022/06/15 03:57:45;;;;;;;17.00;11.87;;;;;;;;;;776201;179;919828;-68
2022/06/15 04:00:12;;;;;;;15.93;11.70;;;;;;;;;;778399;179;918055;-68
2022/06/15 04:02:37;;;;;;;17.00;12.00;;;;;;;;;;776478;179;919071;-68
2022/06/15 04:05:04;;;;;;;14.73;11.77;;;;;;;;;;776895;179;915981;-69
2022/06/15 04:10:01;;;;;;;16.33;12.00;;;;;;;;;;782888;179;916351;-68
2022/06/15 04:12:27;;;;;;;15.20;11.57;;;;;;;;;;780025;179;914787;-69
2022/06/15 04:14:53;;;;;;;16.37;11.70;;;;;;;;;;777575;179;918446;-68
2022/06/15 04:17:19;;;;;;;11.20;10.00;;;;;;;;;;778094;179;927340;-70
2022/06/15 04:20:31;;;;;;;15.90;12.00;;;;;;;;;;779387;179;917190;-68
2022/06/15 04:22:10;;;;;;;11.80;10.50;;;;;;;;;;775768;179;908529;-68
2022/06/15 04:24:39;;;;;;;14.03;10.90;;;;;;;;;;777814;179;918914;-68
2022/06/15 04:27:02;;;;;;;20.07;12.00;;;;;;;;;;785194;179;919052;-68
2022/06/15 04:29:28;;;;;;;12.87;11.47;;;;;;;;;;781759;179;917381;-70
2022/06/15 04:31:54;;;;;;;20.07;11.97;;;;;;;;;;778203;179;919406;-69
2022/06/15 04:34:20;;;;;;;61.80;32.43;;;;;;;;;;782464;179;919147;-68
2022/06/15 04:36:46;;;;;;;73.53;40.93;;;;;;;;;;779317;179;921431;-68
2022/06/15 04:39:11;;;;;;;28.37;21.37;;;;;;;;;;782935;178;918785;-70
2022/06/15 04:41:38;;;;;;;13.85;10.98;;;;;;;;;;779490;178;919324;-68
2022/06/15 04:44:05;;;;;;;31.97;16.40;;;;;;;;;;778072;178;918742;-69
2022/06/15 04:46:30;;;;;;;24.30;14.90;;;;;;;;;;778335;178;919434;-69
2022/06/15 04:48:55;;;;;;;49.57;37.67;;;;;;;;;;778608;178;919229;-67
2022/06/15 04:51:21;;;;;;;148.03;112.43;;;;;;;;;;783791;178;918691;-69
2022/06/15 04:53:48;;;;;;;21.90;13.77;;;;;;;;;;783534;178;919234;-69
2022/06/15 04:56:14;;;;;;;17.00;11.38;;;;;;;;;;780484;178;919548;-70
2022/06/15 04:58:42;;;;;;;11.50;9.37;;;;;;;;;;782917;179;919502;-69
2022/06/15 05:01:06;;;;;;;17.90;12.17;;;;;;;;;;783520;179;627971;-69
2022/06/15 05:03:33;;;;;;;15.83;10.53;;;;;;;;;;784816;179;631424;-71
2022/06/15 05:05:58;;;;;;;13.83;10.53;;;;;;;;;;781746;179;745891;-70
2022/06/15 05:08:24;;;;;;;11.00;9.82;;;;;;;;;;775833;179;919405;-69
2022/06/15 05:10:50;;;;;;;13.97;9.30;;;;;;;;;;777767;179;918731;-69
2022/06/15 05:13:16;;;;;;;20.97;11.17;;;;;;;;;;777730;179;919716;-73
2022/06/15 05:15:42;;;;;;;13.87;9.40;;;;;;;;;;783927;179;919358;-69
2022/06/15 05:18:08;;;;;;;10.77;7.80;;;;;;;;;;779033;179;919210;-69
2022/06/15 05:20:35;;;;;;;9.88;8.88;;;;;;;;;;778394;179;1019511;-70
2022/06/15 05:23:02;;;;;;;9.87;8.70;;;;;;;;;;782478;179;918021;-70
2022/06/15 05:25:27;;;;;;;11.07;7.00;;;;;;;;;;778632;179;918941;-69
2022/06/15 05:27:53;;;;;;;10.37;8.97;;;;;;;;;;778570;179;918978;-70
2022/06/15 05:30:19;;;;;;;9.40;6.50;;;;;;;;;;777311;179;919379;-70
2022/06/15 05:32:45;;;;;;;9.83;7.20;;;;;;;;;;778059;179;918349;-70
2022/06/15 05:35:11;;;;;;;9.50;7.00;;;;;;;;;;778055;179;919550;-70
2022/06/15 05:37:36;;;;;;;8.70;7.37;;;;;;;;;;775964;179;919771;-70
2022/06/15 05:40:03;;;;;;;14.20;6.90;;;;;;;;;;783455;179;918325;-69
2022/06/15 05:42:29;;;;;;;24.50;8.40;;;;;;;;;;779463;179;919313;-70
2022/06/15 05:44:55;;;;;;;10.20;7.57;;;;;;;;;;779089;179;918522;-71
2022/06/15 05:47:20;;;;;;;8.10;6.70;;;;;;;;;;782641;179;918964;-72
2022/06/15 05:49:46;;;;;;;10.70;7.00;;;;;;;;;;781337;176;920311;-70
2022/06/15 05:52:12;;;;;;;17.93;7.30;;;;;;;;;;780770;178;915683;-71
2022/06/15 05:54:38;;;;;;;12.10;7.30;;;;;;;;;;782325;178;921557;-69
2022/06/15 05:57:08;;;;;;;10.20;7.23;;;;;;;;;;777769;178;920786;-72
2022/06/15 05:59:34;;;;;;;13.07;7.37;;;;;;;;;;778475;178;915959;-73
2022/06/15 06:02:00;;;;;;;11.53;6.50;;;;;;;;;;777652;178;918813;-72
2022/06/15 06:04:26;;;;;;;14.90;7.30;;;;;;;;;;784473;178;910171;-72
2022/06/15 06:06:52;;;;;;;16.27;8.77;;;;;;;;;;778961;178;914350;-73
2022/06/15 06:09:18;;;;;;;14.80;7.63;;;;;;;;;;778422;179;918279;-71
2022/06/15 06:11:43;;;;;;;16.17;7.57;;;;;;;;;;781873;179;918431;-72
2022/06/15 06:14:09;;;;;;;10.43;7.37;;;;;;;;;;778386;179;928036;-73
2022/06/15 06:16:35;;;;;;;12.30;7.40;;;;;;;;;;779420;179;919059;-71
2022/06/15 06:19:01;;;;;;;16.73;7.00;;;;;;;;;;777480;179;919736;-71
2022/06/15 06:21:27;;;;;;;9.13;7.20;;;;;;;;;;782751;179;918448;-72
2022/06/15 06:23:53;;;;;;;9.73;6.63;;;;;;;;;;778303;179;918981;-73
2022/06/15 06:26:21;;;;;;;10.40;6.78;;;;;;;;;;777600;179;919984;-76
2022/06/15 06:28:47;;;;;;;13.07;8.67;;;;;;;;;;782482;179;1132079;-73
2022/06/15 06:31:13;;;;;;;11.93;6.50;;;;;;;;;;779920;179;918586;-73
2022/06/15 06:33:39;;;;;;;8.30;6.10;;;;;;;;;;779057;179;919197;-74
2022/06/15 06:36:18;;;;;;;10.00;6.03;;;;;;;;;;782141;179;918966;-75
2022/06/15 06:38:43;;;;;;;10.03;5.73;;;;;;;;;;779903;179;919190;-74
2022/06/15 06:41:09;;;;;;;10.57;7.13;;;;;;;;;;779459;179;918342;-74
2022/06/15 06:43:35;;;;;;;9.30;5.67;;;;;;;;;;776844;179;919899;-72
2022/06/15 06:46:01;;;;;;;8.77;6.03;;;;;;;;;;783610;179;918014;-74
2022/06/15 06:48:27;;;;;;;8.37;4.83;;;;;;;;;;779187;179;919520;-73
2022/06/15 06:50:53;;;;;;;5.37;4.20;;;;;;;;;;779135;179;918252;-74
2022/06/15 06:53:18;;;;;;;7.97;4.80;;;;;;;;;;779287;179;917889;-73
2022/06/15 06:55:44;;;;;;;9.40;3.27;;;;;;;;;;788401;179;616904;-74
2022/06/15 06:58:10;;;;;;;6.03;4.00;;;;;;;;;;780206;179;920125;-74
2022/06/15 07:00:38;;;;;;;6.80;4.03;;;;;;;;;;777730;177;917939;-77
2022/06/15 07:03:04;;;;;;;5.60;3.43;;;;;;;;;;785661;178;909753;-75
2022/06/15 07:05:29;;;;;;;7.80;3.77;;;;;;;;;;780433;178;915686;-74
2022/06/15 07:07:55;;;;;;;8.60;3.50;;;;;;;;;;781605;178;633253;-75
2022/06/15 07:10:21;;;;;;;6.50;3.47;;;;;;;;;;786749;178;633252;-76
2022/06/15 07:12:47;;;;;;;9.07;4.27;;;;;;;;;;783157;178;914561;-74
2022/06/15 07:15:13;;;;;;;4.60;3.00;;;;;;;;;;780631;178;918252;-75
2022/06/15 07:17:38;;;;;;;6.33;3.90;;;;;;;;;;779789;178;919550;-76
2022/06/15 07:20:05;;;;;;;17.03;4.27;;;;;;;;;;784412;178;918976;-76
2022/06/15 07:22:31;;;;;;;10.00;4.10;;;;;;;;;;779439;179;928386;-75
2022/06/15 07:24:57;;;;;;;8.93;4.27;;;;;;;;;;780896;179;912291;-75
2022/06/15 07:27:22;;;;;;;7.05;3.80;;;;;;;;;;782889;179;914377;-76
2022/06/15 07:29:48;;;;;;;8.13;4.63;;;;;;;;;;775788;179;919153;-75
2022/06/15 07:32:14;;;;;;;6.07;3.33;;;;;;;;;;778004;179;912981;-79
2022/06/15 07:34:40;;;;;;;11.50;3.50;;;;;;;;;;784306;179;810993;-76
2022/06/15 07:37:07;;;;;;;8.10;2.90;;;;;;;;;;772583;180;913672;-78
2022/06/15 07:39:32;;;;;;;5.97;3.20;;;;;;;;;;776843;179;913059;-76
2022/06/15 07:41:57;;;;;;;7.53;4.10;;;;;;;;;;779366;179;918489;-80
2022/06/15 07:44:23;;;;;;;5.70;3.40;;;;;;;;;;772667;179;919445;-78
2022/06/15 07:49:54;;;;;;;8.43;3.23;;;;;;;;;;777161;179;918762;-77
2022/06/15 07:51:47;;;;;;;8.13;3.27;;;;;;;;;;784017;179;918473;-78
2022/06/15 07:54:12;;;;;;;6.70;3.10;;;;;;;;;;780135;179;919402;-77
2022/06/15 07:56:38;;;;;;;8.40;3.12;;;;;;;;;;780457;179;917536;-78
2022/06/15 07:59:04;;;;;;;12.87;3.77;;;;;;;;;;779713;179;917989;-79
2022/06/15 08:01:30;;;;;;;6.17;3.30;;;;;;;;;;780462;179;918919;-77
2022/06/15 08:03:56;;;;;;;9.73;3.10;;;;;;;;;;777959;179;918714;-76
2022/06/15 08:06:22;;;;;;;10.83;2.77;;;;;;;;;;775734;180;918846;-77
2022/06/15 08:08:47;;;;;;;5.30;2.70;;;;;;;;;;785279;179;918200;-78
2022/06/15 08:11:13;;;;;;;9.33;2.90;;;;;;;;;;781104;179;917618;-77
2022/06/15 08:13:39;;;;;;;6.87;2.57;;;;;;;;;;780482;177;823491;-80
2022/06/15 08:16:05;;;;;;;3.60;2.90;;;;;;;;;;785092;179;820963;-76
2022/06/15 08:18:31;;;;;;;4.00;2.30;;;;;;;;;;781913;178;915729;-78
2022/06/15 08:20:57;;;;;;;10.37;4.70;;;;;;;;;;782028;178;1018356;-80
2022/06/15 08:23:24;;;;;;;9.50;2.85;;;;;;;;;;781669;178;815871;-80
2022/06/15 08:25:49;;;;;;;6.20;2.60;;;;;;;;;;779239;178;917987;-79
2022/06/15 08:28:15;;;;;;;7.60;2.20;;;;;;;;;;780214;178;910949;-80
2022/06/15 08:30:41;;;;;;;6.13;2.67;;;;;;;;;;779387;178;918992;-80
2022/06/15 08:33:07;;;;;;;4.53;2.20;;;;;;;;;;785960;179;816509;-80
2022/06/15 08:35:36;;;;;;;8.53;2.47;;;;;;;;;;779874;179;919112;-78
2022/06/15 08:37:59;;;;;;;3.37;1.90;;;;;;;;;;779332;179;917355;-77
2022/06/15 08:40:24;;;;;;;3.70;2.37;;;;;;;;;;783559;179;919036;-78
2022/06/15 08:42:51;;;;;;;5.03;2.23;;;;;;;;;;781292;179;1020524;-78
2022/06/15 08:45:24;;;;;;;4.33;2.70;;;;;;;;;;778015;179;917222;-79
2022/06/15 08:47:49;;;;;;;9.13;3.00;;;;;;;;;;778568;179;919551;-78
2022/06/15 08:50:16;;;;;;;6.97;2.97;;;;;;;;;;785254;179;898873;-78
2022/06/15 08:52:42;;;;;;;5.60;2.40;;;;;;;;;;779361;179;918610;-79
2022/06/15 08:55:14;;;;;;;5.50;2.10;;;;;;;;;;778081;179;917373;-80
2022/06/15 08:57:42;;;;;;;5.40;2.53;;;;;;;;;;779899;178;914651;-80
2022/06/15 09:00:14;;;;;;;7.03;2.63;;;;;;;;;;775506;180;815275;-77
2022/06/15 09:02:41;;;;;;;4.63;2.37;;;;;;;;;;777875;179;918520;-79
2022/06/15 09:05:25;;;;;;;4.70;1.87;;;;;;;;;;777267;179;918671;-78
2022/06/15 09:08:11;;;;;;;6.80;2.90;;;;;;;;;;777253;179;918376;-79
2022/06/15 09:10:53;;;;;;;5.00;2.67;;;;;;;;;;776141;179;918778;-79
2022/06/15 09:13:34;;;;;;;5.63;2.53;;;;;;;;;;777932;179;917721;-79
2022/06/15 09:16:06;;;;;;;8.17;2.53;;;;;;;;;;776559;178;917342;-77
2022/06/15 09:18:32;;;;;;;6.27;2.67;;;;;;;;;;775730;179;917904;-73
2022/06/15 09:21:01;;;;;;;6.73;2.77;;;;;;;;;;784764;179;920868;-79
2022/06/15 09:23:27;;;;;;;4.90;2.40;;;;;;;;;;780211;179;914895;-79
2022/06/15 09:25:53;;;;;;;8.02;2.60;;;;;;;;;;780768;178;1324191;-80
2022/06/15 09:28:28;;;;;;;7.03;3.00;;;;;;;;;;781784;178;919663;-77
2022/06/15 09:30:54;;;;;;;6.60;2.70;;;;;;;;;;783684;179;883193;-78
2022/06/15 09:33:21;;;;;;;6.80;2.72;;;;;;;;;;779232;178;919360;-80
2022/06/15 09:36:00;;;;;;;6.67;2.77;;;;;;;;;;781183;178;816898;-78
2022/06/15 09:38:21;;;;;;;6.40;2.10;;;;;;;;;;779706;178;918739;-81
2022/06/15 09:40:47;;;;;;;4.70;2.33;;;;;;;;;;785871;178;809937;-78
2022/06/15 09:43:13;;;;;;;8.23;3.60;;;;;;;;;;779637;179;916136;-78
2022/06/15 09:45:38;;;;;;;6.20;2.47;;;;;;;;;;780711;179;915528;-82
2022/06/15 09:48:20;;;;;;;4.50;2.50;;;;;;;;;;786321;179;714888;-79
2022/06/15 09:50:48;;;;;;;4.30;2.00;;;;;;;;;;781020;179;914958;-77
2022/06/15 09:53:21;;;;;;;3.90;2.00;;;;;;;;;;779548;179;915470;-79
2022/06/15 09:55:46;;;;;;;6.33;2.80;;;;;;;;;;777958;179;915398;-78
2022/06/15 09:58:12;;;;;;;3.23;1.97;;;;;;;;;;775279;179;919480;-79
2022/06/15 10:00:38;;;;;;;4.07;2.77;;;;;;;;;;782812;179;940651;-78
2022/06/15 10:03:04;;;;;;;6.67;2.57;;;;;;;;;;779415;179;883429;-77
2022/06/15 10:05:31;;;;;;;6.43;2.67;;;;;;;;;;779566;179;918926;-79
2022/06/15 10:07:57;;;;;;;6.70;2.70;;;;;;;;;;783249;179;810784;-79
2022/06/15 10:10:23;;;;;;;4.43;2.00;;;;;;;;;;779398;179;892990;-76
2022/06/15 10:15:20;;;;;;;7.23;2.80;;;;;;;;;;778577;179;919363;-74
2022/06/15 10:17:48;;;;;;;4.90;2.50;;;;;;;;;;783154;179;911468;-74
2022/06/15 10:20:20;;;;;;;10.00;2.57;;;;;;;;;;778366;179;919884;-74
2022/06/15 10:22:46;;;;;;;3.97;2.57;;;;;;;;;;778711;179;923491;-77
2022/06/15 10:25:11;;;;;;;5.50;2.27;;;;;;;;;;777177;179;918601;-75
2022/06/15 10:27:37;;;;;;;6.23;3.80;;;;;;;;;;781396;179;917453;-76
2022/06/15 10:30:03;;;;;;;4.47;2.03;;;;;;;;;;780057;179;918452;-74
2022/06/15 10:32:29;;;;;;;5.30;2.50;;;;;;;;;;778984;179;916995;-75
2022/06/15 10:34:55;;;;;;;6.27;2.30;;;;;;;;;;784161;179;918948;-73
2022/06/15 10:37:23;;;;;;;9.03;2.93;;;;;;;;;;783079;178;917971;-73
2022/06/15 10:39:48;;;;;;;6.77;2.83;;;;;;;;;;781715;178;918725;-75
2022/06/15 10:42:20;;;;;;;9.33;3.20;;;;;;;;;;778168;178;927541;-75
2022/06/15 10:44:52;;;;;;;4.33;2.27;;;;;;;;;;780407;178;918595;-78
2022/06/15 10:47:18;;;;;;;4.80;2.50;;;;;;;;;;778118;178;920274;-76
2022/06/15 10:49:44;;;;;;;4.37;2.27;;;;;;;;;;772475;178;1021312;-76
2022/06/15 10:52:15;;;;;;;3.93;2.80;;;;;;;;;;778518;178;921123;-74
2022/06/15 11:02:33;;;;;;;4.97;2.67;;;;;;;;;;777871;179;918059;-75
2022/06/15 11:05:04;;;;;;;5.23;2.40;;;;;;;;;;779954;179;918611;-75
2022/06/15 11:07:29;;;;;;;5.73;2.70;;;;;;;;;;781695;179;919596;-78
2022/06/15 11:10:10;;;;;;;5.53;3.03;;;;;;;;;;780151;179;891230;-75
2022/06/15 11:12:36;;;;;;;4.73;2.70;;;;;;;;;;779821;179;901253;-77
2022/06/15 11:15:03;;;;;;;4.13;2.50;;;;;;;;;;779183;179;919123;-76
2022/06/15 11:20:03;;;;;;;5.70;2.37;;;;;;;;;;782062;179;918304;-75
2022/06/15 11:22:29;;;;;;;7.53;2.23;;;;;;;;;;781267;179;918738;-75
2022/06/15 11:24:55;;;;;;;4.97;3.17;;;;;;;;;;780344;179;919458;-75
2022/06/15 11:27:39;;;;;;;4.97;2.00;;;;;;;;;;779576;179;917346;-77
2022/06/15 11:30:20;;;;;;;5.93;2.40;;;;;;;;;;778127;179;858135;-75
2022/06/15 11:32:46;;;;;;;4.40;2.20;;;;;;;;;;778603;179;919414;-77
2022/06/15 11:35:26;;;;;;;10.33;3.77;;;;;;;;;;783406;179;816409;-77
2022/06/15 11:37:55;;;;;;;4.40;2.40;;;;;;;;;;783248;179;902273;-74
2022/06/15 11:40:25;;;;;;;5.33;2.30;;;;;;;;;;777498;179;918535;-74
2022/06/15 11:42:53;;;;;;;5.00;2.27;;;;;;;;;;778877;179;915941;-77
2022/06/15 11:45:18;;;;;;;5.43;2.63;;;;;;;;;;783137;179;818823;-77
2022/06/15 11:47:48;;;;;;;5.50;2.20;;;;;;;;;;781112;177;918944;-76
2022/06/15 11:50:15;;;;;;;6.57;2.12;;;;;;;;;;781196;178;919532;-76
2022/06/15 11:52:41;;;;;;;4.10;2.10;;;;;;;;;;781602;178;918938;-74
2022/06/15 11:55:14;;;;;;;3.90;2.20;;;;;;;;;;785104;178;918989;-75
2022/06/15 11:57:38;;;;;;;4.40;1.90;;;;;;;;;;779809;178;916709;-76
2022/06/15 12:00:14;;;;;;;3.03;2.07;;;;;;;;;;780102;178;918358;-77
2022/06/15 12:02:57;;;;;;;7.60;1.90;;;;;;;;;;779958;178;922063;-76
2022/06/15 12:05:29;;;;;;;3.35;2.05;;;;;;;;;;780110;178;918236;-78
2022/06/15 12:08:00;;;;;;;4.73;2.00;;;;;;;;;;778591;179;918914;-75
2022/06/15 12:10:28;;;;;;;4.20;2.50;;;;;;;;;;782664;179;919423;-75
2022/06/15 12:12:54;;;;;;;3.60;2.23;;;;;;;;;;778316;179;917794;-75
2022/06/15 12:15:37;;;;;;;4.60;2.10;;;;;;;;;;778656;179;903354;-77
2022/06/15 12:18:09;;;;;;;2.90;1.67;;;;;;;;;;777234;179;1021348;-77
2022/06/15 12:20:35;;;;;;;3.77;1.97;;;;;;;;;;777899;179;918088;-75
2022/06/15 12:23:02;;;;;;;3.50;2.07;;;;;;;;;;783508;179;919182;-77
2022/06/15 12:25:40;;;;;;;4.93;2.37;;;;;;;;;;780214;179;919018;-75
2022/06/15 12:28:08;;;;;;;4.03;1.90;;;;;;;;;;779056;179;818817;-76
2022/06/15 12:30:34;;;;;;;4.73;2.20;;;;;;;;;;781871;179;853857;-76
2022/06/15 12:33:00;;;;;;;2.50;1.90;;;;;;;;;;784128;179;915730;-74
2022/06/15 12:35:27;;;;;;;3.20;1.70;;;;;;;;;;782650;179;819821;-75
2022/06/15 12:37:56;;;;;;;4.57;2.87;;;;;;;;;;780167;179;924446;-75
2022/06/15 12:40:34;;;;;;;3.87;1.73;;;;;;;;;;777523;179;914759;-77
2022/06/15 12:43:03;;;;;;;4.80;2.30;;;;;;;;;;780289;179;920316;-79
2022/06/15 12:45:30;;;;;;;3.10;2.20;;;;;;;;;;782793;179;915103;-79
2022/06/15 12:47:56;;;;;;;3.30;2.00;;;;;;;;;;780256;179;811920;-78
2022/06/15 12:50:41;;;;;;;4.73;2.10;;;;;;;;;;781735;179;707064;-77
2022/06/15 12:53:14;;;;;;;4.43;1.87;;;;;;;;;;777418;179;852129;-75
2022/06/15 12:55:45;;;;;;;7.10;2.33;;;;;;;;;;779312;179;913781;-79
2022/06/15 12:58:26;;;;;;;4.00;2.17;;;;;;;;;;781192;177;812975;-78
2022/06/15 13:00:52;;;;;;;6.43;2.27;;;;;;;;;;785419;178;915089;-77
2022/06/15 13:03:18;;;;;;;4.53;2.50;;;;;;;;;;783372;178;629980;-78
2022/06/15 13:05:44;;;;;;;2.60;1.80;;;;;;;;;;781816;178;915551;-77
2022/06/15 13:08:22;;;;;;;2.73;2.20;;;;;;;;;;783865;178;914974;-75
2022/06/15 13:11:01;;;;;;;3.70;1.87;;;;;;;;;;784152;178;707475;-78
2022/06/15 13:13:29;;;;;;;6.07;1.90;;;;;;;;;;785465;178;880087;-77
2022/06/15 13:15:59;;;;;;;7.00;2.30;;;;;;;;;;777995;178;817425;-77
2022/06/15 13:18:24;;;;;;;4.20;1.93;;;;;;;;;;777538;179;913266;-80
2022/06/15 13:20:58;;;;;;;8.23;3.10;;;;;;;;;;786535;179;634101;-78
2022/06/15 13:23:24;;;;;;;6.67;2.00;;;;;;;;;;784958;179;630447;-80
2022/06/15 13:25:51;;;;;;;2.93;1.50;;;;;;;;;;782893;179;634537;-79
2022/06/15 13:28:19;;;;;;;3.30;2.30;;;;;;;;;;780674;179;917973;-80
2022/06/15 13:30:58;;;;;;;5.55;1.90;;;;;;;;;;784808;179;916867;-77
2022/06/15 13:33:21;;;;;;;4.03;2.23;;;;;;;;;;783431;179;869454;-78
2022/06/15 13:35:47;;;;;;;4.93;2.40;;;;;;;;;;781528;179;635576;-80
2022/06/15 13:38:16;;;;;;;5.60;1.83;;;;;;;;;;780153;179;632630;-77
2022/06/15 13:40:59;;;;;;;3.90;2.03;;;;;;;;;;782792;179;808252;-78
2022/06/15 13:43:25;;;;;;;4.77;2.03;;;;;;;;;;778278;179;919097;-78
2022/06/15 13:45:50;;;;;;;3.60;2.07;;;;;;;;;;777293;179;878909;-78
2022/06/15 13:48:18;;;;;;;5.83;1.90;;;;;;;;;;782696;179;626459;-80
2022/06/15 13:50:47;;;;;;;3.30;1.60;;;;;;;;;;780680;179;635912;-80
2022/06/15 13:53:13;;;;;;;2.97;1.50;;;;;;;;;;785968;179;668957;-77
2022/06/15 13:55:39;;;;;;;5.60;2.03;;;;;;;;;;781611;179;635121;-78
2022/06/15 13:58:20;;;;;;;2.80;1.67;;;;;;;;;;782244;179;636320;-78
2022/06/15 14:01:03;;;;;;;3.90;1.80;;;;;;;;;;783956;179;628788;-78
2022/06/15 14:03:30;;;;;;;3.20;1.57;;;;;;;;;;782591;179;622997;-78
2022/06/15 14:06:00;;;;;;;2.47;1.50;;;;;;;;;;783153;179;636436;-78
2022/06/15 14:08:47;;;;;;;6.03;1.77;;;;;;;;;;781001;179;621673;-80
2022/06/15 14:11:28;;;;;;;9.27;2.10;;;;;;;;;;786047;176;644164;-79
2022/06/15 14:13:55;;;;;;;3.00;1.63;;;;;;;;;;786791;178;635039;-78
2022/06/15 14:16:27;;;;;;;4.63;1.63;;;;;;;;;;784039;178;629660;-82
2022/06/15 14:18:56;;;;;;;3.43;1.73;;;;;;;;;;782471;178;641970;-77
2022/06/15 14:21:22;;;;;;;7.83;2.50;;;;;;;;;;782294;178;648228;-78
2022/06/15 14:23:47;;;;;;;3.17;2.00;;;;;;;;;;788139;178;628976;-77
2022/06/15 14:26:14;;;;;;;3.90;1.70;;;;;;;;;;782726;178;627145;-78
2022/06/15 14:28:39;;;;;;;3.10;1.70;;;;;;;;;;782235;178;634661;-77
2022/06/15 14:31:06;;;;;;;3.10;1.60;;;;;;;;;;786966;179;628641;-77
2022/06/15 14:33:31;;;;;;;3.80;1.70;;;;;;;;;;784834;179;629139;-78
2022/06/15 14:35:59;;;;;;;4.50;2.00;;;;;;;;;;781469;179;640513;-78
2022/06/15 14:38:26;;;;;;;9.20;2.23;;;;;;;;;;782337;179;642229;-79
2022/06/15 14:40:51;;;;;;;5.90;1.97;;;;;;;;;;778284;179;631516;-80
2022/06/15 14:43:19;;;;;;;4.07;1.93;;;;;;;;;;780612;179;815565;-78